createdAt,value
2022-09-07T00:00:15.169Z,43.09
2022-09-07T00:02:42.873Z,43.35
2022-09-07T00:05:10.787Z,43.21
2022-09-07T00:07:38.717Z,43.63
2022-09-07T00:10:07.176Z,44.42
2022-09-07T00:12:36.329Z,44.33
2022-09-07T00:15:08.188Z,44.99
2022-09-07T00:17:36.095Z,46.32
2022-09-07T00:20:04.451Z,46.26
2022-09-07T00:22:32.145Z,46.76
2022-09-07T00:24:59.833Z,47.66
2022-09-07T00:27:27.586Z,47.78
2022-09-07T00:29:56.592Z,48.79
2022-09-07T00:32:24.318Z,48.71
2022-09-07T00:34:52.029Z,49.09
2022-09-07T00:37:38.493Z,49.44
2022-09-07T00:40:07.995Z,49.90
2022-09-07T00:42:35.781Z,50.88
2022-09-07T00:45:10.099Z,50.90
2022-09-07T00:47:44.413Z,51.54
2022-09-07T00:50:15.760Z,51.16
2022-09-07T00:52:43.536Z,51.20
2022-09-07T00:55:11.905Z,51.60
2022-09-07T00:57:40.309Z,51.30
2022-09-07T01:00:11.722Z,51.43
2022-09-07T01:02:39.497Z,51.75
2022-09-07T01:05:11.805Z,52.51
2022-09-07T01:07:39.666Z,52.74
2022-09-07T01:10:08.249Z,52.67
2022-09-07T01:12:35.991Z,52.34
2022-09-07T01:15:04.699Z,52.80
2022-09-07T01:17:38.293Z,53.17
2022-09-07T01:20:40.459Z,53.35
2022-09-07T01:23:54.032Z,53.07
2022-09-07T01:27:00.238Z,53.07
2022-09-07T01:29:30.837Z,53.63
2022-09-07T01:32:02.735Z,53.78
2022-09-07T01:34:31.101Z,54.53
2022-09-07T01:37:01.921Z,54.77
2022-09-07T01:39:31.404Z,54.67
2022-09-07T01:41:59.913Z,54.61
2022-09-07T01:44:28.233Z,54.40
2022-09-07T01:47:00.060Z,54.54
2022-09-07T01:49:29.289Z,54.54
2022-09-07T01:51:59.055Z,54.35
2022-09-07T01:54:29.553Z,54.29
2022-09-07T01:56:58.188Z,54.59
2022-09-07T01:59:28.626Z,54.58
2022-09-07T02:02:01.162Z,55.14
2022-09-07T02:04:31.521Z,55.13
2022-09-07T02:07:01.183Z,55.15
2022-09-07T02:09:31.793Z,55.14
2022-09-07T02:12:00.455Z,55.47
2022-09-07T02:14:29.852Z,55.61
2022-09-07T02:17:04.817Z,55.73
2022-09-07T02:19:36.225Z,56.03
2022-09-07T02:22:06.111Z,56.26
2022-09-07T02:24:35.279Z,56.32
2022-09-07T02:27:03.878Z,56.53
2022-09-07T02:29:32.801Z,56.11
2022-09-07T02:32:01.994Z,56.34
2022-09-07T02:34:29.774Z,56.58
2022-09-07T02:36:57.426Z,56.04
2022-09-07T02:39:25.202Z,56.50
2022-09-07T02:41:52.978Z,56.05
2022-09-07T02:44:21.751Z,56.30
2022-09-07T02:46:55.267Z,56.69
2022-09-07T02:49:35.637Z,56.52
2022-09-07T02:52:07.387Z,56.69
2022-09-07T02:54:42.248Z,56.78
2022-09-07T02:57:14.333Z,56.92
2022-09-07T02:59:50.277Z,57.14
2022-09-07T03:02:20.911Z,57.45
2022-09-07T03:04:51.708Z,57.16
2022-09-07T03:07:21.710Z,56.99
2022-09-07T03:09:50.716Z,57.46
2022-09-07T03:12:18.451Z,56.99
2022-09-07T03:14:46.176Z,57.24
2022-09-07T03:17:14.412Z,57.33
2022-09-07T03:19:42.057Z,57.21
2022-09-07T03:22:11.273Z,57.32
2022-09-07T03:24:38.898Z,56.66
2022-09-07T03:27:06.675Z,56.40
2022-09-07T03:29:34.440Z,56.37
2022-09-07T03:32:02.085Z,56.20
2022-09-07T03:34:29.818Z,56.15
2022-09-07T03:36:57.656Z,56.35
2022-09-07T03:39:27.693Z,56.41
2022-09-07T03:41:55.437Z,56.62
2022-09-07T03:44:23.197Z,56.92
2022-09-07T03:46:50.931Z,57.07
2022-09-07T03:49:19.049Z,57.37
2022-09-07T03:51:46.662Z,57.54
2022-09-07T03:54:14.421Z,57.51
2022-09-07T03:56:43.463Z,57.24
2022-09-07T03:59:11.179Z,57.32
2022-09-07T04:01:39.029Z,57.54
2022-09-07T04:04:06.885Z,57.54
2022-09-07T04:06:35.636Z,57.62
2022-09-07T04:09:04.022Z,57.78
2022-09-07T04:11:32.273Z,57.75
2022-09-07T04:14:01.610Z,57.82
2022-09-07T04:16:29.412Z,57.73
2022-09-07T04:18:58.899Z,57.78
2022-09-07T04:21:27.372Z,58.23
2022-09-07T04:23:55.084Z,58.08
2022-09-07T04:26:23.723Z,58.37
2022-09-07T04:28:51.491Z,57.94
2022-09-07T04:31:20.748Z,58.37
2022-09-07T04:33:49.092Z,58.48
2022-09-07T04:36:17.200Z,58.49
2022-09-07T04:38:45.230Z,58.49
2022-09-07T04:41:14.272Z,58.53
2022-09-07T04:43:43.299Z,58.22
2022-09-07T04:46:13.014Z,58.63
2022-09-07T04:48:42.054Z,58.39
2022-09-07T04:51:10.777Z,58.41
2022-09-07T04:53:38.929Z,58.48
2022-09-07T04:56:07.148Z,58.51
2022-09-07T04:58:34.796Z,58.59
2022-09-07T05:01:02.910Z,58.42
2022-09-07T05:03:30.785Z,58.36
2022-09-07T05:08:29.645Z,58.37
2022-09-07T05:10:57.595Z,58.65
2022-09-07T05:13:25.613Z,58.64
2022-09-07T05:15:53.236Z,58.23
2022-09-07T05:18:21.232Z,58.25
2022-09-07T05:20:48.852Z,58.23
2022-09-07T05:23:16.854Z,58.31
2022-09-07T05:25:46.159Z,58.36
2022-09-07T05:28:18.711Z,58.27
2022-09-07T05:36:22.690Z,57.83
2022-09-07T05:38:50.554Z,57.69
2022-09-07T05:41:21.262Z,57.64
2022-09-07T05:46:37.063Z,57.73
2022-09-07T05:49:04.738Z,57.48
2022-09-07T05:51:32.457Z,57.21
2022-09-07T05:54:00.235Z,57.10
2022-09-07T05:56:29.400Z,57.58
2022-09-07T05:58:57.135Z,57.42
2022-09-07T06:01:25.015Z,57.13
2022-09-07T06:03:52.806Z,56.72
2022-09-07T06:06:20.754Z,56.51
2022-09-07T06:08:49.182Z,55.98
2022-09-07T06:11:33.243Z,55.44
2022-09-07T06:14:01.342Z,54.89
2022-09-07T06:16:29.122Z,54.32
2022-09-07T06:19:20.463Z,53.88
2022-09-07T06:21:49.423Z,54.37
2022-09-07T06:24:17.086Z,54.33
2022-09-07T06:26:46.212Z,53.03
2022-09-07T06:29:14.454Z,51.55
2022-09-07T06:34:29.986Z,49.51
2022-09-07T06:36:57.842Z,49.24
2022-09-07T06:39:25.621Z,49.42
2022-09-07T06:44:25.841Z,47.62
2022-09-07T06:49:29.086Z,45.21
2022-09-07T06:51:57.128Z,43.57
2022-09-07T06:57:17.537Z,42.26
2022-09-07T06:59:45.490Z,41.60
2022-09-07T07:02:13.462Z,40.43
2022-09-07T07:04:41.566Z,39.26
2022-09-07T07:07:11.659Z,39.09
2022-09-07T07:09:39.912Z,37.43
2022-09-07T07:12:08.103Z,37.95
2022-09-07T07:14:38.671Z,36.74
2022-09-07T07:17:07.930Z,35.25
2022-09-07T07:19:35.829Z,33.72
2022-09-07T07:22:29.543Z,33.17
2022-09-07T07:24:53.980Z,32.95
2022-09-07T07:27:22.489Z,31.85
2022-09-07T07:29:52.409Z,32.15
2022-09-07T07:32:20.428Z,31.70
2022-09-07T07:34:48.205Z,31.54
2022-09-07T07:37:16.216Z,31.09
2022-09-07T07:42:32.537Z,30.76
2022-09-07T07:47:50.239Z,30.78
2022-09-07T07:50:34.152Z,30.55
2022-09-07T07:55:50.460Z,29.97
2022-09-07T07:58:18.140Z,29.41
2022-09-07T08:00:55.894Z,28.73
2022-09-07T08:03:24.103Z,28.90
2022-09-07T08:05:52.337Z,29.41
2022-09-07T08:08:20.117Z,28.75
2022-09-07T08:10:47.901Z,27.80
2022-09-07T08:13:15.814Z,28.05
2022-09-07T08:15:46.178Z,28.53
2022-09-07T08:18:15.614Z,28.83
2022-09-07T08:20:43.603Z,28.39
2022-09-07T08:23:11.729Z,29.21
2022-09-07T08:25:39.615Z,29.23
2022-09-07T08:28:07.274Z,29.42
2022-09-07T08:30:36.832Z,29.22
2022-09-07T08:33:04.747Z,29.35
2022-09-07T08:35:34.155Z,28.70
2022-09-07T08:38:01.855Z,27.25
2022-09-07T08:40:29.588Z,26.28
2022-09-07T08:43:03.190Z,26.28
2022-09-07T08:45:33.373Z,24.97
2022-09-07T08:48:01.696Z,24.52
2022-09-07T08:50:30.712Z,24.12
2022-09-07T08:53:02.509Z,23.72
2022-09-07T08:55:31.317Z,24.15
2022-09-07T08:58:02.851Z,22.36
2022-09-07T09:00:30.954Z,21.81
2022-09-07T09:05:52.945Z,21.59
2022-09-07T09:08:32.755Z,22.16
2022-09-07T09:11:04.584Z,21.77
2022-09-07T09:13:41.169Z,22.01
2022-09-07T09:16:12.669Z,21.75
2022-09-07T09:18:49.113Z,20.61
2022-09-07T09:21:20.280Z,20.90
2022-09-07T09:23:53.437Z,20.36
2022-09-07T09:26:23.712Z,19.00
2022-09-07T09:28:51.434Z,18.35
2022-09-07T09:31:20.255Z,17.93
2022-09-07T09:34:08.522Z,18.34
2022-09-07T09:36:37.093Z,18.55
2022-09-07T09:39:38.469Z,18.06
2022-09-07T09:42:15.838Z,17.97
2022-09-07T09:44:43.667Z,17.26
2022-09-07T09:47:30.275Z,17.53
2022-09-07T09:49:59.404Z,17.00
2022-09-07T09:52:43.421Z,17.53
2022-09-07T09:55:34.507Z,18.53
2022-09-07T10:04:01.098Z,20.50
2022-09-07T10:06:32.006Z,19.25
2022-09-07T10:09:01.826Z,18.96
2022-09-07T10:14:35.731Z,17.26
2022-09-07T10:17:13.933Z,16.14
2022-09-07T10:19:42.396Z,15.51
2022-09-07T10:22:31.766Z,14.78
2022-09-07T10:25:00.771Z,14.46
2022-09-07T10:27:37.448Z,14.49
2022-09-07T10:30:10.996Z,13.92
2022-09-07T10:32:54.935Z,13.93
2022-09-07T10:35:25.157Z,14.56
2022-09-07T10:37:57.016Z,16.03
2022-09-07T10:40:35.223Z,16.95
2022-09-07T10:43:21.660Z,17.93
2022-09-07T10:49:21.235Z,18.14
2022-09-07T10:51:58.631Z,18.09
2022-09-07T10:54:30.888Z,17.56
2022-09-07T10:57:02.072Z,16.11
2022-09-07T11:02:32.352Z,15.37
2022-09-07T11:07:39.879Z,14.78
2022-09-07T11:10:14.024Z,13.32
2022-09-07T11:12:41.627Z,12.34
2022-09-07T11:15:17.676Z,12.26
2022-09-07T11:17:50.640Z,12.34
2022-09-07T11:20:25.229Z,12.48
2022-09-07T11:22:55.012Z,12.70
2022-09-07T11:25:31.855Z,14.03
2022-09-07T11:28:02.059Z,15.37
2022-09-07T11:30:32.256Z,16.80
2022-09-07T11:33:03.072Z,16.90
2022-09-07T11:35:37.867Z,17.39
2022-09-07T11:38:22.031Z,18.48
2022-09-07T11:40:56.392Z,18.78
2022-09-07T11:43:25.907Z,19.24
2022-09-07T11:45:56.570Z,19.54
2022-09-07T11:48:30.448Z,20.22
2022-09-07T11:50:59.920Z,19.87
2022-09-07T11:53:28.771Z,19.81
2022-09-07T11:55:57.222Z,19.16
2022-09-07T11:58:38.923Z,19.86
2022-09-07T12:01:14.802Z,20.25
2022-09-07T12:03:53.915Z,19.82
2022-09-07T12:06:49.923Z,20.96
2022-09-07T12:09:25.694Z,21.46
2022-09-07T12:12:05.702Z,22.08
2022-09-07T12:14:38.197Z,22.76
2022-09-07T12:17:16.834Z,22.96
2022-09-07T12:19:44.533Z,23.87
2022-09-07T12:22:22.482Z,24.71
2022-09-07T12:24:51.301Z,24.73
2022-09-07T12:27:39.262Z,23.94
2022-09-07T12:30:41.305Z,24.47
2022-09-07T12:33:23.738Z,24.52
2022-09-07T12:35:54.970Z,25.35
2022-09-07T12:39:06.980Z,25.90
2022-09-07T12:41:48.715Z,26.19
2022-09-07T12:44:19.837Z,26.62
2022-09-07T12:47:00.238Z,26.66
2022-09-07T12:49:39.094Z,27.59
2022-09-07T12:52:15.941Z,27.95
2022-09-07T12:54:45.846Z,28.15
2022-09-07T12:57:36.719Z,28.73
2022-09-07T13:00:12.510Z,28.25
2022-09-07T13:03:00.538Z,28.47
2022-09-07T13:05:40.546Z,28.28
2022-09-07T13:08:19.675Z,28.61
2022-09-07T13:10:47.510Z,29.64
2022-09-07T13:14:02.627Z,30.05
2022-09-07T13:16:28.006Z,30.60
2022-09-07T13:18:56.072Z,30.58
2022-09-07T13:21:36.903Z,29.61
2022-09-07T13:24:51.933Z,30.10
2022-09-07T13:27:34.780Z,29.55
2022-09-07T13:30:04.859Z,30.00
2022-09-07T13:35:21.430Z,29.93
2022-09-07T13:37:53.148Z,29.30
2022-09-07T13:40:23.325Z,29.23
2022-09-07T13:42:52.312Z,29.18
2022-09-07T13:45:28.809Z,29.63
2022-09-07T13:47:58.667Z,29.60
2022-09-07T13:50:32.645Z,29.61
2022-09-07T13:53:16.978Z,29.81
2022-09-07T13:55:46.654Z,29.30
2022-09-07T13:58:17.042Z,29.03
2022-09-07T14:00:54.718Z,29.33
2022-09-07T14:03:22.644Z,29.88
2022-09-07T14:05:50.254Z,30.08
2022-09-07T14:08:29.885Z,29.63
2022-09-07T14:10:57.568Z,29.34
2022-09-07T14:13:26.445Z,29.47
2022-09-07T14:15:54.040Z,29.06
2022-09-07T14:18:26.566Z,29.31
2022-09-07T14:20:54.294Z,30.42
2022-09-07T14:23:23.392Z,30.18
2022-09-07T14:26:17.286Z,30.55
2022-09-07T14:28:46.412Z,29.88
2022-09-07T14:31:15.162Z,30.09
2022-09-07T14:33:50.223Z,29.68
2022-09-07T14:36:41.759Z,29.82
2022-09-07T14:39:06.687Z,30.67
2022-09-07T14:41:38.419Z,30.42
2022-09-07T14:44:06.489Z,30.15
2022-09-07T14:46:34.679Z,29.41
2022-09-07T14:49:03.144Z,29.78
2022-09-07T14:51:36.069Z,29.97
2022-09-07T14:54:05.487Z,29.79
2022-09-07T14:56:34.587Z,30.07
2022-09-07T14:59:03.612Z,29.85
2022-09-07T15:01:38.951Z,29.47
2022-09-07T15:04:17.333Z,29.25
2022-09-07T15:07:02.221Z,30.11
2022-09-07T15:09:31.145Z,29.37
2022-09-07T15:12:12.239Z,29.59
2022-09-07T15:14:41.215Z,30.07
2022-09-07T15:20:34.961Z,30.69
2022-09-07T15:23:03.861Z,30.71
2022-09-07T15:25:32.020Z,30.43
2022-09-07T15:27:59.709Z,30.77
2022-09-07T15:30:28.877Z,30.90
2022-09-07T15:32:57.326Z,31.12
2022-09-07T15:35:25.147Z,31.38
2022-09-07T15:41:03.748Z,30.76
2022-09-07T15:43:31.237Z,30.55
2022-09-07T15:46:03.523Z,29.48
2022-09-07T15:48:31.433Z,29.78
2022-09-07T15:51:03.489Z,30.23
2022-09-07T15:56:20.155Z,29.76
2022-09-07T15:58:52.745Z,29.75
2022-09-07T16:04:10.314Z,30.21
2022-09-07T16:06:38.559Z,30.72
2022-09-07T16:09:06.522Z,30.42
2022-09-07T16:11:35.610Z,30.56
2022-09-07T16:14:03.986Z,30.64
2022-09-07T16:19:21.154Z,30.95
2022-09-07T16:21:48.926Z,31.16
2022-09-07T16:24:17.212Z,30.50
2022-09-07T16:26:44.802Z,30.86
2022-09-07T16:29:12.476Z,31.12
2022-09-07T16:32:44.010Z,31.56
2022-09-07T16:34:29.717Z,31.80
2022-09-07T16:36:58.427Z,31.91
2022-09-07T16:39:26.057Z,31.95
2022-09-07T16:41:54.612Z,32.18
2022-09-07T16:44:22.396Z,32.07
2022-09-07T16:46:52.157Z,32.81
2022-09-07T16:49:20.032Z,32.43
2022-09-07T16:51:49.626Z,32.64
2022-09-07T16:54:18.064Z,32.68
2022-09-07T16:56:45.784Z,32.70
2022-09-07T16:59:16.197Z,33.19
2022-09-07T17:01:44.980Z,32.94
2022-09-07T17:04:14.187Z,33.29
2022-09-07T17:06:41.902Z,33.27
2022-09-07T17:09:09.729Z,33.66
2022-09-07T17:11:38.759Z,33.28
2022-09-07T17:14:08.678Z,33.46
2022-09-07T17:16:38.119Z,33.80
2022-09-07T17:21:55.465Z,34.39
2022-09-07T17:24:25.022Z,34.45
2022-09-07T17:26:52.691Z,34.55
2022-09-07T17:29:21.902Z,35.04
2022-09-07T17:34:37.282Z,36.08
2022-09-07T17:37:06.347Z,35.82
2022-09-07T17:39:34.275Z,36.43
2022-09-07T17:42:02.028Z,36.57
2022-09-07T17:44:34.689Z,36.87
2022-09-07T17:47:05.825Z,36.60
2022-09-07T17:49:33.696Z,37.52
2022-09-07T17:52:01.607Z,37.66
2022-09-07T17:54:30.822Z,37.49
2022-09-07T17:56:58.982Z,38.45
2022-09-07T18:02:15.558Z,38.12
2022-09-07T18:04:43.712Z,38.84
2022-09-07T18:07:11.604Z,38.63
2022-09-07T18:09:40.642Z,39.08
2022-09-07T18:12:08.428Z,39.53
2022-09-07T18:14:36.211Z,39.22
2022-09-07T18:17:05.023Z,39.99
2022-09-07T18:19:32.905Z,39.94
2022-09-07T18:22:04.793Z,40.14
2022-09-07T18:24:32.541Z,40.62
2022-09-07T18:27:01.605Z,40.92
2022-09-07T18:29:32.962Z,41.40
2022-09-07T18:32:02.462Z,41.50
2022-09-07T18:34:31.977Z,41.51
2022-09-07T18:37:00.190Z,41.94
2022-09-07T18:39:28.098Z,42.01
2022-09-07T18:41:55.886Z,42.42
2022-09-07T18:47:21.442Z,42.62
2022-09-07T18:49:50.929Z,42.84
2022-09-07T18:55:07.216Z,43.42
2022-09-07T18:57:36.503Z,43.80
2022-09-07T19:00:07.369Z,43.30
2022-09-07T19:02:35.774Z,43.57
2022-09-07T19:07:51.699Z,43.65
2022-09-07T19:10:19.518Z,43.82
2022-09-07T19:12:47.370Z,43.71
2022-09-07T19:15:16.965Z,44.04
2022-09-07T19:17:44.648Z,44.10
2022-09-07T19:20:12.567Z,44.27
2022-09-07T19:22:40.361Z,44.61
2022-09-07T19:25:08.685Z,44.41
2022-09-07T19:27:36.399Z,44.41
2022-09-07T19:30:04.806Z,44.41
2022-09-07T19:32:34.005Z,44.49
2022-09-07T19:35:01.888Z,44.66
2022-09-07T19:37:31.974Z,44.57
2022-09-07T19:40:00.065Z,44.74
2022-09-07T19:42:28.440Z,44.97
2022-09-07T19:44:56.446Z,44.83
2022-09-07T19:47:24.356Z,44.98
2022-09-07T19:49:53.445Z,45.47
2022-09-07T19:52:21.064Z,45.00
2022-09-07T19:54:48.819Z,45.49
2022-09-07T19:57:16.434Z,45.74
2022-09-07T19:59:45.538Z,45.53
2022-09-07T20:02:13.334Z,45.79
2022-09-07T20:04:41.171Z,45.89
2022-09-07T20:07:10.194Z,46.17
2022-09-07T20:09:37.985Z,46.57
2022-09-07T20:12:06.749Z,46.12
2022-09-07T20:14:34.555Z,46.79
2022-09-07T20:17:02.367Z,46.80
2022-09-07T20:19:30.149Z,46.56
2022-09-07T20:21:57.845Z,47.09
2022-09-07T20:24:26.965Z,47.06
2022-09-07T20:26:54.610Z,47.65
2022-09-07T20:29:29.583Z,47.54
2022-09-07T20:31:57.915Z,47.67
2022-09-07T20:34:25.857Z,47.62
2022-09-07T20:36:53.561Z,47.86
2022-09-07T20:39:21.588Z,47.78
2022-09-07T20:41:50.642Z,48.42
2022-09-07T20:44:18.480Z,48.55
2022-09-07T20:46:46.183Z,48.23
2022-09-07T20:49:13.809Z,48.66
2022-09-07T20:51:41.428Z,48.22
2022-09-07T20:54:10.076Z,48.56
2022-09-07T20:56:37.788Z,49.01
2022-09-07T20:59:06.777Z,48.49
2022-09-07T21:01:35.108Z,49.22
2022-09-07T21:04:04.084Z,48.64
2022-09-07T21:06:32.640Z,48.88
2022-09-07T21:09:00.500Z,49.04
2022-09-07T21:11:29.731Z,49.21
2022-09-07T21:13:58.259Z,49.87
2022-09-07T21:16:27.531Z,49.33
2022-09-07T21:18:56.230Z,49.98
2022-09-07T21:21:24.812Z,49.76
2022-09-07T21:23:56.823Z,50.04
2022-09-07T21:26:25.200Z,50.20
2022-09-07T21:28:57.107Z,50.23
2022-09-07T21:31:25.926Z,50.83
2022-09-07T21:33:59.946Z,50.80
2022-09-07T21:36:28.809Z,50.63
2022-09-07T21:38:57.306Z,51.09
2022-09-07T21:41:29.154Z,50.83
2022-09-07T21:43:57.113Z,50.81
2022-09-07T21:46:25.438Z,51.00
2022-09-07T21:48:53.642Z,51.18
2022-09-07T21:51:23.389Z,51.22
2022-09-07T21:53:53.087Z,51.27
2022-09-07T21:56:21.386Z,51.16
2022-09-07T21:58:49.406Z,51.44
2022-09-07T22:01:18.628Z,51.05
2022-09-07T22:03:47.550Z,51.73
2022-09-07T22:06:15.951Z,51.42
2022-09-07T22:08:45.792Z,51.71
2022-09-07T22:11:14.909Z,51.85
2022-09-07T22:13:43.203Z,51.72
2022-09-07T22:16:11.342Z,51.76
2022-09-07T22:18:40.187Z,51.77
2022-09-07T22:21:08.751Z,51.98
2022-09-07T22:23:37.535Z,51.74
2022-09-07T22:26:07.099Z,52.01
2022-09-07T22:28:34.960Z,51.81
2022-09-07T22:31:09.852Z,52.24
2022-09-07T22:33:37.901Z,51.86
2022-09-07T22:36:13.972Z,52.16
2022-09-07T22:38:42.115Z,51.84
2022-09-07T22:41:12.811Z,52.29
2022-09-07T22:43:40.938Z,52.03
2022-09-07T22:46:09.288Z,51.87
2022-09-07T22:48:37.409Z,52.06
2022-09-07T22:51:05.569Z,51.94
2022-09-07T22:53:34.842Z,51.86
2022-09-07T22:56:07.038Z,51.84
2022-09-07T22:58:36.886Z,52.19
2022-09-07T23:01:05.373Z,51.76
2022-09-07T23:03:34.675Z,51.61
2022-09-07T23:06:03.500Z,51.66
2022-09-07T23:08:31.733Z,52.09
2022-09-07T23:11:05.089Z,52.14
2022-09-07T23:13:33.851Z,51.71
2022-09-07T23:16:07.383Z,51.69
2022-09-07T23:18:36.009Z,51.67
2022-09-07T23:21:04.343Z,51.82
2022-09-07T23:23:32.621Z,51.49
2022-09-07T23:26:02.395Z,51.60
2022-09-07T23:28:31.082Z,50.76
2022-09-07T23:30:59.542Z,50.45
2022-09-07T23:33:29.023Z,50.34
2022-09-07T23:35:57.922Z,50.52
2022-09-07T23:38:26.498Z,50.73
2022-09-07T23:40:54.828Z,50.53
2022-09-07T23:43:22.983Z,50.59
2022-09-07T23:45:51.011Z,50.17
2022-09-07T23:48:19.181Z,49.99
2022-09-07T23:50:48.965Z,49.96
2022-09-07T23:53:17.966Z,49.78
2022-09-07T23:55:46.074Z,49.69
2022-09-07T23:58:14.146Z,50.01
